sensor_id;sensor_type;location;lat;lon;timestamp;pressure;altitude;pressure_sealevel;temperature;humidity
65151;BME280;51918;51.856;0.150;2023-04-24T00:04:05;99587.66;;;7.63;79.96
65151;BME280;51918;51.856;0.150;2023-04-24T00:09:06;99597.91;;;7.55;80.23
65151;BME280;51918;51.856;0.150;2023-04-24T00:14:06;99592.16;;;7.53;81.57
65151;BME280;51918;51.856;0.150;2023-04-24T00:19:08;99603.50;;;7.58;81.35
65151;BME280;51918;51.856;0.150;2023-04-24T00:24:09;99609.75;;;7.64;81.43
65151;BME280;51918;51.856;0.150;2023-04-24T00:29:10;99608.13;;;7.63;81.09
65151;BME280;51918;51.856;0.150;2023-04-24T00:34:12;99608.13;;;7.63;80.39
65151;BME280;51918;51.856;0.150;2023-04-24T00:39:12;99616.50;;;7.49;79.76
65151;BME280;51918;51.856;0.150;2023-04-24T00:44:13;99621.00;;;7.38;79.82
65151;BME280;51918;51.856;0.150;2023-04-24T00:49:15;99621.31;;;7.35;79.64
65151;BME280;51918;51.856;0.150;2023-04-24T00:54:16;99628.84;;;7.29;79.27
65151;BME280;51918;51.856;0.150;2023-04-24T00:59:17;99633.50;;;7.25;79.46
65151;BME280;51918;51.856;0.150;2023-04-24T01:04:19;99639.88;;;7.21;79.17
65151;BME280;51918;51.856;0.150;2023-04-24T01:09:21;99647.06;;;7.09;79.69
65151;BME280;51918;51.856;0.150;2023-04-24T01:14:23;99653.31;;;6.98;79.61
65151;BME280;51918;51.856;0.150;2023-04-24T01:19:25;99647.72;;;6.95;80.87
65151;BME280;51918;51.856;0.150;2023-04-24T01:24:27;99660.19;;;6.98;81.28
65151;BME280;51918;51.856;0.150;2023-04-24T01:29:28;99661.97;;;7.06;81.62
65151;BME280;51918;51.856;0.150;2023-04-24T01:34:29;99665.13;;;7.16;81.92
65151;BME280;51918;51.856;0.150;2023-04-24T01:39:31;99664.50;;;7.30;82.46
65151;BME280;51918;51.856;0.150;2023-04-24T01:44:33;99672.16;;;7.38;82.40
65151;BME280;51918;51.856;0.150;2023-04-24T01:49:34;99684.13;;;7.54;82.67
65151;BME280;51918;51.856;0.150;2023-04-24T01:54:36;99681.06;;;7.67;82.84
65151;BME280;51918;51.856;0.150;2023-04-24T01:59:36;99675.13;;;7.75;82.78
65151;BME280;51918;51.856;0.150;2023-04-24T02:04:37;99682.63;;;7.84;82.43
65151;BME280;51918;51.856;0.150;2023-04-24T02:09:39;99686.13;;;7.92;82.33
65151;BME280;51918;51.856;0.150;2023-04-24T02:14:39;99694.91;;;7.97;82.42
65151;BME280;51918;51.856;0.150;2023-04-24T02:19:40;99698.44;;;8.04;81.98
65151;BME280;51918;51.856;0.150;2023-04-24T02:24:42;99692.16;;;8.15;81.90
65151;BME280;51918;51.856;0.150;2023-04-24T02:29:43;99690.38;;;8.16;81.78
65151;BME280;51918;51.856;0.150;2023-04-24T02:34:43;99689.06;;;8.20;81.26
65151;BME280;51918;51.856;0.150;2023-04-24T02:39:45;99693.56;;;8.18;81.36
65151;BME280;51918;51.856;0.150;2023-04-24T02:44:46;99698.06;;;8.16;81.12
65151;BME280;51918;51.856;0.150;2023-04-24T02:49:46;99697.72;;;8.19;80.43
65151;BME280;51918;51.856;0.150;2023-04-24T02:54:48;99714.22;;;8.16;79.76
65151;BME280;51918;51.856;0.150;2023-04-24T02:59:49;99723.34;;;8.11;79.81
65151;BME280;51918;51.856;0.150;2023-04-24T03:04:49;99722.41;;;8.12;79.13
65151;BME280;51918;51.856;0.150;2023-04-24T03:09:51;99730.59;;;8.07;78.76
65151;BME280;51918;51.856;0.150;2023-04-24T03:14:52;99730.91;;;7.96;78.61
65151;BME280;51918;51.856;0.150;2023-04-24T03:19:52;99732.38;;;7.90;78.17
65151;BME280;51918;51.856;0.150;2023-04-24T03:24:54;99734.47;;;7.78;78.43
65151;BME280;51918;51.856;0.150;2023-04-24T03:29:55;99738.03;;;7.53;77.63
65151;BME280;51918;51.856;0.150;2023-04-24T03:34:55;99748.59;;;7.58;78.90
65151;BME280;51918;51.856;0.150;2023-04-24T03:39:57;99754.66;;;7.57;78.68
65151;BME280;51918;51.856;0.150;2023-04-24T03:44:58;99769.06;;;7.58;78.64
65151;BME280;51918;51.856;0.150;2023-04-24T03:49:58;99776.91;;;7.56;79.01
65151;BME280;51918;51.856;0.150;2023-04-24T03:55:00;99781.53;;;7.53;78.90
65151;BME280;51918;51.856;0.150;2023-04-24T04:00:01;99794.63;;;7.41;78.97
65151;BME280;51918;51.856;0.150;2023-04-24T04:05:01;99800.72;;;7.40;79.79
65151;BME280;51918;51.856;0.150;2023-04-24T04:10:04;99806.94;;;7.46;79.83
65151;BME280;51918;51.856;0.150;2023-04-24T04:15:05;99806.94;;;7.46;79.80
65151;BME280;51918;51.856;0.150;2023-04-24T04:20:07;99826.00;;;7.52;79.86
65151;BME280;51918;51.856;0.150;2023-04-24T04:25:10;99831.44;;;7.40;80.18
65151;BME280;51918;51.856;0.150;2023-04-24T04:30:10;99845.03;;;7.41;79.94
65151;BME280;51918;51.856;0.150;2023-04-24T04:35:11;99849.97;;;7.34;79.88
65151;BME280;51918;51.856;0.150;2023-04-24T04:40:13;99841.03;;;7.38;79.71
65151;BME280;51918;51.856;0.150;2023-04-24T04:45:14;99854.91;;;7.28;79.75
65151;BME280;51918;51.856;0.150;2023-04-24T04:50:14;99864.03;;;7.30;78.85
65151;BME280;51918;51.856;0.150;2023-04-24T04:55:17;99874.09;;;7.32;79.23
65151;BME280;51918;51.856;0.150;2023-04-24T05:00:17;99896.13;;;7.25;78.29
65151;BME280;51918;51.856;0.150;2023-04-24T05:05:18;99884.97;;;7.26;77.88
65151;BME280;51918;51.856;0.150;2023-04-24T05:10:20;99887.69;;;7.32;77.71
65151;BME280;51918;51.856;0.150;2023-04-24T05:15:21;99895.03;;;7.35;77.22
65151;BME280;51918;51.856;0.150;2023-04-24T05:20:22;99908.81;;;7.34;77.70
65151;BME280;51918;51.856;0.150;2023-04-24T05:25:24;99902.91;;;7.42;77.04
65151;BME280;51918;51.856;0.150;2023-04-24T05:30:24;99909.47;;;7.53;76.50
65151;BME280;51918;51.856;0.150;2023-04-24T05:35:26;99918.44;;;7.57;76.36
65151;BME280;51918;51.856;0.150;2023-04-24T05:40:28;99932.22;;;7.56;76.55
65151;BME280;51918;51.856;0.150;2023-04-24T05:45:28;99938.66;;;7.68;76.49
65151;BME280;51918;51.856;0.150;2023-04-24T05:50:29;99947.28;;;7.75;76.24
65151;BME280;51918;51.856;0.150;2023-04-24T05:55:31;99941.72;;;7.96;75.45
65151;BME280;51918;51.856;0.150;2023-04-24T06:00:32;99945.41;;;8.02;74.61
65151;BME280;51918;51.856;0.150;2023-04-24T06:05:33;99947.69;;;8.30;73.99
65151;BME280;51918;51.856;0.150;2023-04-24T06:10:35;99955.69;;;8.51;73.67
65151;BME280;51918;51.856;0.150;2023-04-24T06:15:36;99954.38;;;8.72;72.82
65151;BME280;51918;51.856;0.150;2023-04-24T06:20:36;99966.19;;;8.97;71.21
65151;BME280;51918;51.856;0.150;2023-04-24T06:25:38;99960.16;;;9.21;69.27
65151;BME280;51918;51.856;0.150;2023-04-24T06:30:39;99969.56;;;9.37;68.09
65151;BME280;51918;51.856;0.150;2023-04-24T06:35:40;99968.88;;;9.43;66.55
65151;BME280;51918;51.856;0.150;2023-04-24T06:40:42;99963.59;;;9.45;65.07
65151;BME280;51918;51.856;0.150;2023-04-24T06:45:43;99965.63;;;9.58;66.39
65151;BME280;51918;51.856;0.150;2023-04-24T06:50:44;99958.63;;;9.75;65.88
65151;BME280;51918;51.856;0.150;2023-04-24T06:55:46;99975.69;;;9.99;63.86
65151;BME280;51918;51.856;0.150;2023-04-24T07:00:46;99972.91;;;10.23;63.77
65151;BME280;51918;51.856;0.150;2023-04-24T07:05:48;99983.47;;;10.66;63.80
65151;BME280;51918;51.856;0.150;2023-04-24T07:10:50;99979.50;;;11.53;61.61
65151;BME280;51918;51.856;0.150;2023-04-24T07:15:51;99983.69;;;12.40;58.11
65151;BME280;51918;51.856;0.150;2023-04-24T07:20:52;99986.59;;;13.22;55.73
65151;BME280;51918;51.856;0.150;2023-04-24T07:25:54;99987.63;;;13.82;52.54
65151;BME280;51918;51.856;0.150;2023-04-24T07:30:54;99993.03;;;14.21;50.17
65151;BME280;51918;51.856;0.150;2023-04-24T07:35:55;100000.59;;;14.42;49.88
65151;BME280;51918;51.856;0.150;2023-04-24T07:40:57;99993.81;;;14.81;47.91
65151;BME280;51918;51.856;0.150;2023-04-24T07:45:58;99995.50;;;15.66;47.71
65151;BME280;51918;51.856;0.150;2023-04-24T07:50:58;99995.97;;;16.70;46.30
65151;BME280;51918;51.856;0.150;2023-04-24T07:56:00;99985.06;;;17.83;44.20
65151;BME280;51918;51.856;0.150;2023-04-24T08:01:01;99996.22;;;18.73;41.31
65151;BME280;51918;51.856;0.150;2023-04-24T08:06:02;99999.13;;;19.41;40.35
65151;BME280;51918;51.856;0.150;2023-04-24T08:11:04;100004.16;;;20.22;38.19
65151;BME280;51918;51.856;0.150;2023-04-24T08:16:05;100014.16;;;20.81;36.34
65151;BME280;51918;51.856;0.150;2023-04-24T08:21:06;100003.19;;;21.23;35.70
65151;BME280;51918;51.856;0.150;2023-04-24T08:26:08;99997.50;;;21.80;34.62
65151;BME280;51918;51.856;0.150;2023-04-24T08:31:08;99997.66;;;22.38;33.77
65151;BME280;51918;51.856;0.150;2023-04-24T08:36:09;100002.72;;;22.98;32.52
65151;BME280;51918;51.856;0.150;2023-04-24T08:41:11;100005.56;;;22.91;32.65
65151;BME280;51918;51.856;0.150;2023-04-24T08:46:13;100010.88;;;23.11;31.46
65151;BME280;51918;51.856;0.150;2023-04-24T08:51:13;100004.44;;;23.55;31.94
65151;BME280;51918;51.856;0.150;2023-04-24T08:56:16;100008.13;;;24.26;30.82
65151;BME280;51918;51.856;0.150;2023-04-24T09:01:17;100016.25;;;24.45;29.66
65151;BME280;51918;51.856;0.150;2023-04-24T09:06:19;100021.78;;;24.43;30.43
65151;BME280;51918;51.856;0.150;2023-04-24T09:11:24;100015.72;;;24.63;28.92
65151;BME280;51918;51.856;0.150;2023-04-24T09:16:26;100015.47;;;24.44;28.79
65151;BME280;51918;51.856;0.150;2023-04-24T09:21:32;100018.91;;;24.34;28.83
65151;BME280;51918;51.856;0.150;2023-04-24T09:26:36;100027.59;;;24.30;27.79
65151;BME280;51918;51.856;0.150;2023-04-24T09:31:36;100041.28;;;24.06;28.13
65151;BME280;51918;51.856;0.150;2023-04-24T09:36:38;100039.16;;;23.88;29.10
65151;BME280;51918;51.856;0.150;2023-04-24T09:41:46;100040.19;;;23.71;29.33
65151;BME280;51918;51.856;0.150;2023-04-24T09:46:50;100045.06;;;23.27;28.98
65151;BME280;51918;51.856;0.150;2023-04-24T09:51:51;100054.88;;;22.89;29.33
65151;BME280;51918;51.856;0.150;2023-04-24T09:56:54;100055.97;;;22.50;30.48
65151;BME280;51918;51.856;0.150;2023-04-24T10:01:55;100071.47;;;22.25;30.10
65151;BME280;51918;51.856;0.150;2023-04-24T10:06:56;100073.38;;;21.53;30.67
65151;BME280;51918;51.856;0.150;2023-04-24T10:11:58;100072.47;;;21.42;31.05
65151;BME280;51918;51.856;0.150;2023-04-24T10:17:00;100079.59;;;21.47;31.58
65151;BME280;51918;51.856;0.150;2023-04-24T10:22:00;100100.97;;;21.39;31.36
65151;BME280;51918;51.856;0.150;2023-04-24T10:27:03;100096.31;;;21.02;31.75
65151;BME280;51918;51.856;0.150;2023-04-24T10:32:06;100103.91;;;20.86;31.77
65151;BME280;51918;51.856;0.150;2023-04-24T10:37:07;100113.91;;;20.89;31.67
65151;BME280;51918;51.856;0.150;2023-04-24T10:42:15;100119.16;;;20.73;31.26
65151;BME280;51918;51.856;0.150;2023-04-24T10:47:16;100115.97;;;20.54;31.77
65151;BME280;51918;51.856;0.150;2023-04-24T10:52:16;100110.28;;;20.40;32.17
65151;BME280;51918;51.856;0.150;2023-04-24T10:57:28;100110.34;;;20.45;32.59
65151;BME280;51918;51.856;0.150;2023-04-24T11:02:36;100117.88;;;20.41;32.17
65151;BME280;51918;51.856;0.150;2023-04-24T11:08:11;100116.50;;;19.93;31.00
65151;BME280;51918;51.856;0.150;2023-04-24T11:13:15;100119.03;;;19.47;32.48
65151;BME280;51918;51.856;0.150;2023-04-24T11:18:16;100115.16;;;19.38;33.38
65151;BME280;51918;51.856;0.150;2023-04-24T11:23:18;100117.34;;;19.30;35.85
65151;BME280;51918;51.856;0.150;2023-04-24T11:28:20;100123.00;;;19.03;34.96
65151;BME280;51918;51.856;0.150;2023-04-24T11:33:24;100133.66;;;18.66;35.67
65151;BME280;51918;51.856;0.150;2023-04-24T11:38:26;100134.41;;;18.55;36.59
65151;BME280;51918;51.856;0.150;2023-04-24T11:43:30;100126.00;;;18.53;36.57
65151;BME280;51918;51.856;0.150;2023-04-24T11:48:34;100124.28;;;18.46;37.06
65151;BME280;51918;51.856;0.150;2023-04-24T11:53:36;100121.00;;;18.51;36.65
65151;BME280;51918;51.856;0.150;2023-04-24T11:58:39;100132.75;;;18.84;37.59
65151;BME280;51918;51.856;0.150;2023-04-24T12:03:39;100120.13;;;19.63;38.62
65151;BME280;51918;51.856;0.150;2023-04-24T12:08:40;100128.41;;;20.80;35.95
65151;BME280;51918;51.856;0.150;2023-04-24T12:13:42;100119.22;;;21.78;33.00
65151;BME280;51918;51.856;0.150;2023-04-24T12:18:44;100129.63;;;22.54;33.02
65151;BME280;51918;51.856;0.150;2023-04-24T12:23:44;100129.72;;;23.07;29.38
65151;BME280;51918;51.856;0.150;2023-04-24T12:28:49;100126.59;;;23.73;31.10
65151;BME280;51918;51.856;0.150;2023-04-24T12:33:49;100132.19;;;23.97;28.22
65151;BME280;51918;51.856;0.150;2023-04-24T12:38:53;100130.03;;;23.84;28.12
65151;BME280;51918;51.856;0.150;2023-04-24T12:43:55;100131.97;;;23.36;28.61
65151;BME280;51918;51.856;0.150;2023-04-24T12:48:55;100129.25;;;23.15;28.29
65151;BME280;51918;51.856;0.150;2023-04-24T12:53:56;100129.00;;;22.74;29.03
65151;BME280;51918;51.856;0.150;2023-04-24T12:58:58;100125.63;;;22.46;29.17
65151;BME280;51918;51.856;0.150;2023-04-24T13:03:58;100122.59;;;22.00;28.99
65151;BME280;51918;51.856;0.150;2023-04-24T13:08:59;100118.31;;;21.67;29.79
65151;BME280;51918;51.856;0.150;2023-04-24T13:14:02;100133.16;;;21.39;30.99
65151;BME280;51918;51.856;0.150;2023-04-24T13:19:02;100129.75;;;21.17;31.46
65151;BME280;51918;51.856;0.150;2023-04-24T13:24:03;100138.22;;;20.73;31.11
65151;BME280;51918;51.856;0.150;2023-04-24T13:29:05;100131.34;;;20.33;31.83
65151;BME280;51918;51.856;0.150;2023-04-24T13:34:06;100121.50;;;20.23;30.80
65151;BME280;51918;51.856;0.150;2023-04-24T13:39:07;100117.34;;;20.39;31.90
65151;BME280;51918;51.856;0.150;2023-04-24T13:44:09;100117.63;;;20.60;31.53
65151;BME280;51918;51.856;0.150;2023-04-24T13:49:10;100112.81;;;20.52;30.42
65151;BME280;51918;51.856;0.150;2023-04-24T13:54:10;100115.34;;;20.80;30.16
65151;BME280;51918;51.856;0.150;2023-04-24T13:59:12;100110.91;;;20.81;31.69
65151;BME280;51918;51.856;0.150;2023-04-24T14:04:13;100102.81;;;20.82;29.12
65151;BME280;51918;51.856;0.150;2023-04-24T14:09:14;100095.06;;;20.37;31.55
65151;BME280;51918;51.856;0.150;2023-04-24T14:14:16;100085.16;;;20.73;30.89
65151;BME280;51918;51.856;0.150;2023-04-24T14:19:16;100095.09;;;21.09;30.08
65151;BME280;51918;51.856;0.150;2023-04-24T14:24:18;100087.22;;;21.26;30.25
65151;BME280;51918;51.856;0.150;2023-04-24T14:29:20;100071.63;;;21.37;29.03
65151;BME280;51918;51.856;0.150;2023-04-24T14:34:21;100076.88;;;21.15;30.73
65151;BME280;51918;51.856;0.150;2023-04-24T14:39:22;100086.69;;;21.07;31.09
65151;BME280;51918;51.856;0.150;2023-04-24T14:44:24;100084.91;;;20.91;30.51
65151;BME280;51918;51.856;0.150;2023-04-24T14:49:25;100079.00;;;20.62;30.71
65151;BME280;51918;51.856;0.150;2023-04-24T14:54:26;100079.81;;;20.17;31.90
65151;BME280;51918;51.856;0.150;2023-04-24T14:59:28;100077.78;;;19.73;32.31
65151;BME280;51918;51.856;0.150;2023-04-24T15:04:29;100081.50;;;19.25;32.40
65151;BME280;51918;51.856;0.150;2023-04-24T15:09:30;100087.78;;;19.00;33.45
65151;BME280;51918;51.856;0.150;2023-04-24T15:14:32;100078.84;;;18.84;33.19
65151;BME280;51918;51.856;0.150;2023-04-24T15:19:32;100084.13;;;18.66;33.27
65151;BME280;51918;51.856;0.150;2023-04-24T15:24:33;100089.97;;;18.38;33.80
65151;BME280;51918;51.856;0.150;2023-04-24T15:29:35;100095.03;;;18.21;34.50
65151;BME280;51918;51.856;0.150;2023-04-24T15:34:36;100093.03;;;18.04;34.61
65151;BME280;51918;51.856;0.150;2023-04-24T15:39:37;100100.31;;;17.84;34.90
65151;BME280;51918;51.856;0.150;2023-04-24T15:44:39;100097.59;;;17.60;35.62
65151;BME280;51918;51.856;0.150;2023-04-24T15:49:40;100106.03;;;17.37;35.54
65151;BME280;51918;51.856;0.150;2023-04-24T15:54:40;100107.03;;;17.18;35.49
65151;BME280;51918;51.856;0.150;2023-04-24T15:59:43;100112.69;;;16.90;35.26
65151;BME280;51918;51.856;0.150;2023-04-24T16:04:44;100116.03;;;16.72;36.58
65151;BME280;51918;51.856;0.150;2023-04-24T16:09:45;100118.88;;;16.32;37.10
65151;BME280;51918;51.856;0.150;2023-04-24T16:14:48;100123.41;;;16.05;37.43
65151;BME280;51918;51.856;0.150;2023-04-24T16:19:48;100133.13;;;15.71;39.69
65151;BME280;51918;51.856;0.150;2023-04-24T16:24:49;100137.22;;;15.27;41.36
65151;BME280;51918;51.856;0.150;2023-04-24T16:29:51;100157.97;;;14.93;42.63
65151;BME280;51918;51.856;0.150;2023-04-24T16:34:52;100161.25;;;14.54;45.18
65151;BME280;51918;51.856;0.150;2023-04-24T16:39:52;100168.75;;;14.22;45.88
65151;BME280;51918;51.856;0.150;2023-04-24T16:44:54;100175.28;;;14.05;47.21
65151;BME280;51918;51.856;0.150;2023-04-24T16:49:55;100189.09;;;13.84;47.85
65151;BME280;51918;51.856;0.150;2023-04-24T16:54:56;100192.66;;;13.54;48.83
65151;BME280;51918;51.856;0.150;2023-04-24T17:00:00;100202.91;;;13.41;49.99
65151;BME280;51918;51.856;0.150;2023-04-24T17:05:01;100207.72;;;13.23;49.92
65151;BME280;51918;51.856;0.150;2023-04-24T17:10:02;100212.16;;;13.07;50.63
65151;BME280;51918;51.856;0.150;2023-04-24T17:15:05;100228.69;;;12.70;51.18
65151;BME280;51918;51.856;0.150;2023-04-24T17:20:07;100235.94;;;12.45;51.74
65151;BME280;51918;51.856;0.150;2023-04-24T17:25:08;100233.19;;;12.17;51.72
65151;BME280;51918;51.856;0.150;2023-04-24T17:30:11;100248.34;;;12.05;52.52
65151;BME280;51918;51.856;0.150;2023-04-24T17:35:12;100251.97;;;11.96;53.27
65151;BME280;51918;51.856;0.150;2023-04-24T17:40:13;100249.38;;;11.81;53.48
65151;BME280;51918;51.856;0.150;2023-04-24T17:45:15;100259.69;;;11.66;54.55
65151;BME280;51918;51.856;0.150;2023-04-24T17:50:16;100262.91;;;11.45;54.55
65151;BME280;51918;51.856;0.150;2023-04-24T17:55:17;100262.84;;;11.30;55.31
65151;BME280;51918;51.856;0.150;2023-04-24T18:00:19;100259.69;;;11.20;55.71
65151;BME280;51918;51.856;0.150;2023-04-24T18:05:20;100272.31;;;11.06;56.27
65151;BME280;51918;51.856;0.150;2023-04-24T18:10:21;100283.84;;;10.87;56.61
65151;BME280;51918;51.856;0.150;2023-04-24T18:15:24;100280.28;;;10.65;56.72
65151;BME280;51918;51.856;0.150;2023-04-24T18:20:25;100281.75;;;10.52;57.87
65151;BME280;51918;51.856;0.150;2023-04-24T18:25:25;100275.41;;;10.39;58.41
65151;BME280;51918;51.856;0.150;2023-04-24T18:30:28;100280.72;;;10.29;59.09
65151;BME280;51918;51.856;0.150;2023-04-24T18:35:29;100275.63;;;10.13;58.98
65151;BME280;51918;51.856;0.150;2023-04-24T18:40:30;100291.38;;;10.02;59.74
65151;BME280;51918;51.856;0.150;2023-04-24T18:45:32;100294.59;;;9.96;60.29
65151;BME280;51918;51.856;0.150;2023-04-24T18:50:32;100303.63;;;9.92;61.07
65151;BME280;51918;51.856;0.150;2023-04-24T18:55:33;100319.66;;;9.85;60.88
65151;BME280;51918;51.856;0.150;2023-04-24T19:00:35;100333.47;;;9.68;61.35
65151;BME280;51918;51.856;0.150;2023-04-24T19:05:36;100336.97;;;9.59;61.94
65151;BME280;51918;51.856;0.150;2023-04-24T19:10:36;100342.56;;;9.38;61.82
65151;BME280;51918;51.856;0.150;2023-04-24T19:15:38;100348.63;;;9.28;62.54
65151;BME280;51918;51.856;0.150;2023-04-24T19:20:39;100358.72;;;9.22;63.82
65151;BME280;51918;51.856;0.150;2023-04-24T19:25:40;100357.75;;;9.15;63.51
65151;BME280;51918;51.856;0.150;2023-04-24T19:30:42;100359.97;;;9.10;64.07
65151;BME280;51918;51.856;0.150;2023-04-24T19:35:43;100357.56;;;9.00;64.59
65151;BME280;51918;51.856;0.150;2023-04-24T19:40:44;100354.81;;;8.93;64.52
65151;BME280;51918;51.856;0.150;2023-04-24T19:45:46;100372.25;;;8.90;64.21
65151;BME280;51918;51.856;0.150;2023-04-24T19:50:47;100373.03;;;8.82;64.35
65151;BME280;51918;51.856;0.150;2023-04-24T19:55:47;100389.97;;;8.75;64.22
65151;BME280;51918;51.856;0.150;2023-04-24T20:00:49;100391.88;;;8.73;65.06
65151;BME280;51918;51.856;0.150;2023-04-24T20:05:50;100405.94;;;8.60;64.57
65151;BME280;51918;51.856;0.150;2023-04-24T20:10:51;100412.75;;;8.52;64.67
65151;BME280;51918;51.856;0.150;2023-04-24T20:15:53;100411.63;;;8.46;64.82
65151;BME280;51918;51.856;0.150;2023-04-24T20:20:54;100411.56;;;8.38;64.77
65151;BME280;51918;51.856;0.150;2023-04-24T20:25:55;100413.25;;;8.29;64.43
65151;BME280;51918;51.856;0.150;2023-04-24T20:30:57;100417.19;;;8.23;64.57
65151;BME280;51918;51.856;0.150;2023-04-24T20:35:58;100420.31;;;8.17;65.06
65151;BME280;51918;51.856;0.150;2023-04-24T20:40:59;100413.06;;;8.04;64.86
65151;BME280;51918;51.856;0.150;2023-04-24T20:46:01;100425.78;;;7.96;64.78
65151;BME280;51918;51.856;0.150;2023-04-24T20:51:01;100430.03;;;7.88;65.49
65151;BME280;51918;51.856;0.150;2023-04-24T20:56:02;100436.31;;;7.75;65.30
65151;BME280;51918;51.856;0.150;2023-04-24T21:01:04;100447.34;;;7.76;65.93
65151;BME280;51918;51.856;0.150;2023-04-24T21:06:05;100462.47;;;7.69;65.30
65151;BME280;51918;51.856;0.150;2023-04-24T21:11:06;100449.59;;;7.61;66.09
65151;BME280;51918;51.856;0.150;2023-04-24T21:16:08;100450.81;;;7.57;66.11
65151;BME280;51918;51.856;0.150;2023-04-24T21:21:09;100451.59;;;7.39;65.66
65151;BME280;51918;51.856;0.150;2023-04-24T21:26:10;100464.00;;;7.34;65.78
65151;BME280;51918;51.856;0.150;2023-04-24T21:31:12;100472.38;;;7.27;65.27
65151;BME280;51918;51.856;0.150;2023-04-24T21:36:13;100478.34;;;7.17;65.45
65151;BME280;51918;51.856;0.150;2023-04-24T21:41:14;100475.72;;;6.99;65.10
65151;BME280;51918;51.856;0.150;2023-04-24T21:46:18;100472.00;;;6.84;65.54
65151;BME280;51918;51.856;0.150;2023-04-24T21:51:19;100483.75;;;6.67;65.33
65151;BME280;51918;51.856;0.150;2023-04-24T21:56:20;100492.50;;;6.55;65.54
65151;BME280;51918;51.856;0.150;2023-04-24T22:01:22;100492.47;;;6.45;66.11
65151;BME280;51918;51.856;0.150;2023-04-24T22:06:23;100504.84;;;6.30;65.86
65151;BME280;51918;51.856;0.150;2023-04-24T22:11:25;100504.28;;;6.17;66.05
65151;BME280;51918;51.856;0.150;2023-04-24T22:16:27;100514.34;;;5.99;66.14
65151;BME280;51918;51.856;0.150;2023-04-24T22:21:27;100515.00;;;5.91;67.21
65151;BME280;51918;51.856;0.150;2023-04-24T22:26:28;100517.78;;;5.78;66.92
65151;BME280;51918;51.856;0.150;2023-04-24T22:31:30;100518.97;;;5.65;66.85
65151;BME280;51918;51.856;0.150;2023-04-24T22:36:30;100531.94;;;5.52;67.55
65151;BME280;51918;51.856;0.150;2023-04-24T22:41:31;100528.53;;;5.42;67.80
65151;BME280;51918;51.856;0.150;2023-04-24T22:46:33;100544.59;;;5.32;68.19
65151;BME280;51918;51.856;0.150;2023-04-24T22:51:34;100550.47;;;5.23;67.95
65151;BME280;51918;51.856;0.150;2023-04-24T22:56:34;100570.13;;;5.11;68.08
65151;BME280;51918;51.856;0.150;2023-04-24T23:01:36;100571.66;;;5.03;68.85
65151;BME280;51918;51.856;0.150;2023-04-24T23:06:37;100562.91;;;4.95;69.18
65151;BME280;51918;51.856;0.150;2023-04-24T23:11:38;100563.28;;;4.91;70.20
65151;BME280;51918;51.856;0.150;2023-04-24T23:16:40;100562.97;;;4.84;70.28
65151;BME280;51918;51.856;0.150;2023-04-24T23:21:40;100558.59;;;4.75;70.32
65151;BME280;51918;51.856;0.150;2023-04-24T23:26:41;100566.19;;;4.65;70.35
65151;BME280;51918;51.856;0.150;2023-04-24T23:31:43;100574.41;;;4.57;70.87
65151;BME280;51918;51.856;0.150;2023-04-24T23:36:44;100583.69;;;4.47;70.98
65151;BME280;51918;51.856;0.150;2023-04-24T23:41:45;100580.72;;;4.42;71.63
65151;BME280;51918;51.856;0.150;2023-04-24T23:46:47;100582.69;;;4.39;71.32
65151;BME280;51918;51.856;0.150;2023-04-24T23:51:47;100586.75;;;4.30;71.38
65151;BME280;51918;51.856;0.150;2023-04-24T23:56:48;100581.69;;;4.19;71.18
